sensor_id;sensor_type;location;lat;lon;timestamp;P1;durP1;ratioP1;P2;durP2;ratioP2
55545;SDS011;44768;50.298;127.520;2022-08-11T00:00:12;0.10;;;0.10;;
55545;SDS011;44768;50.298;127.520;2022-08-11T00:05:15;0.10;;;0.10;;
55545;SDS011;44768;50.298;127.520;2022-08-11T00:10:21;0.10;;;0.10;;
55545;SDS011;44768;50.298;127.520;2022-08-11T00:15:27;0.10;;;0.10;;
55545;SDS011;44768;50.298;127.520;2022-08-11T00:20:40;0.10;;;0.10;;
55545;SDS011;44768;50.298;127.520;2022-08-11T00:25:46;0.10;;;0.10;;
55545;SDS011;44768;50.298;127.520;2022-08-11T00:30:52;0.10;;;0.10;;
55545;SDS011;44768;50.298;127.520;2022-08-11T00:35:56;0.10;;;0.10;;
55545;SDS011;44768;50.298;127.520;2022-08-11T01:02:43;0.10;;;0.10;;
55545;SDS011;44768;50.298;127.520;2022-08-11T02:01:44;0.00;;;0.00;;
55545;SDS011;44768;50.298;127.520;2022-08-11T02:12:38;0.10;;;0.10;;
55545;SDS011;44768;50.298;127.520;2022-08-11T02:17:48;0.10;;;0.10;;
55545;SDS011;44768;50.298;127.520;2022-08-11T02:23:02;0.10;;;0.10;;
55545;SDS011;44768;50.298;127.520;2022-08-11T02:34:21;0.10;;;0.10;;
55545;SDS011;44768;50.298;127.520;2022-08-11T02:39:40;0.10;;;0.10;;
55545;SDS011;44768;50.298;127.520;2022-08-11T02:55:29;0.10;;;0.10;;
55545;SDS011;44768;50.298;127.520;2022-08-11T03:00:35;0.10;;;0.10;;
55545;SDS011;44768;50.298;127.520;2022-08-11T03:22:50;0.10;;;0.10;;
55545;SDS011;44768;50.298;127.520;2022-08-11T03:27:58;0.10;;;0.10;;
55545;SDS011;44768;50.298;127.520;2022-08-11T03:33:16;0.10;;;0.10;;
55545;SDS011;44768;50.298;127.520;2022-08-11T03:44:09;0.10;;;0.10;;
55545;SDS011;44768;50.298;127.520;2022-08-11T03:54:39;0.10;;;0.10;;
55545;SDS011;44768;50.298;127.520;2022-08-11T04:00:09;0.20;;;0.20;;
55545;SDS011;44768;50.298;127.520;2022-08-11T05:15:56;0.10;;;0.10;;
55545;SDS011;44768;50.298;127.520;2022-08-11T05:21:18;0.10;;;0.10;;
55545;SDS011;44768;50.298;127.520;2022-08-11T05:26:44;0.10;;;0.10;;
55545;SDS011;44768;50.298;127.520;2022-08-11T05:32:10;0.10;;;0.10;;
55545;SDS011;44768;50.298;127.520;2022-08-11T05:37:43;0.10;;;0.10;;
55545;SDS011;44768;50.298;127.520;2022-08-11T05:43:13;0.10;;;0.10;;
55545;SDS011;44768;50.298;127.520;2022-08-11T05:48:34;0.10;;;0.10;;
55545;SDS011;44768;50.298;127.520;2022-08-11T05:53:56;0.10;;;0.10;;
55545;SDS011;44768;50.298;127.520;2022-08-11T05:59:19;0.10;;;0.10;;
55545;SDS011;44768;50.298;127.520;2022-08-11T06:04:22;0.10;;;0.10;;
55545;SDS011;44768;50.298;127.520;2022-08-11T06:09:27;0.10;;;0.10;;
55545;SDS011;44768;50.298;127.520;2022-08-11T06:14:29;0.10;;;0.10;;
55545;SDS011;44768;50.298;127.520;2022-08-11T06:19:34;0.10;;;0.10;;
55545;SDS011;44768;50.298;127.520;2022-08-11T06:24:41;0.10;;;0.10;;
55545;SDS011;44768;50.298;127.520;2022-08-11T06:29:52;0.10;;;0.10;;
55545;SDS011;44768;50.298;127.520;2022-08-11T06:40:25;0.00;;;0.00;;
55545;SDS011;44768;50.298;127.520;2022-08-11T06:45:31;0.00;;;0.00;;
55545;SDS011;44768;50.298;127.520;2022-08-11T06:50:50;0.00;;;0.00;;
55545;SDS011;44768;50.298;127.520;2022-08-11T06:56:20;0.52;;;0.22;;
55545;SDS011;44768;50.298;127.520;2022-08-11T07:02:00;0.10;;;0.10;;
55545;SDS011;44768;50.298;127.520;2022-08-11T07:07:20;0.10;;;0.10;;
55545;SDS011;44768;50.298;127.520;2022-08-11T07:13:00;0.10;;;0.10;;
55545;SDS011;44768;50.298;127.520;2022-08-11T07:18:22;0.10;;;0.10;;
55545;SDS011;44768;50.298;127.520;2022-08-11T07:23:45;0.10;;;0.10;;
55545;SDS011;44768;50.298;127.520;2022-08-11T07:29:05;0.10;;;0.10;;
55545;SDS011;44768;50.298;127.520;2022-08-11T07:34:21;0.20;;;0.20;;
55545;SDS011;44768;50.298;127.520;2022-08-11T07:39:24;0.10;;;0.10;;
55545;SDS011;44768;50.298;127.520;2022-08-11T07:44:28;0.10;;;0.10;;
55545;SDS011;44768;50.298;127.520;2022-08-11T07:49:32;0.10;;;0.10;;
55545;SDS011;44768;50.298;127.520;2022-08-11T07:55:04;0.10;;;0.10;;
55545;SDS011;44768;50.298;127.520;2022-08-11T08:00:09;0.10;;;0.10;;
55545;SDS011;44768;50.298;127.520;2022-08-11T08:05:30;0.10;;;0.10;;
55545;SDS011;44768;50.298;127.520;2022-08-11T08:10:51;0.10;;;0.10;;
55545;SDS011;44768;50.298;127.520;2022-08-11T08:22:21;0.30;;;0.30;;
55545;SDS011;44768;50.298;127.520;2022-08-11T08:27:23;0.20;;;0.20;;
55545;SDS011;44768;50.298;127.520;2022-08-11T08:32:26;0.20;;;0.20;;
55545;SDS011;44768;50.298;127.520;2022-08-11T08:42:40;0.10;;;0.10;;
55545;SDS011;44768;50.298;127.520;2022-08-11T08:47:57;0.47;;;0.30;;
55545;SDS011;44768;50.298;127.520;2022-08-11T08:53:02;0.20;;;0.20;;
55545;SDS011;44768;50.298;127.520;2022-08-11T08:58:06;0.20;;;0.20;;
55545;SDS011;44768;50.298;127.520;2022-08-11T09:03:10;0.10;;;0.10;;
55545;SDS011;44768;50.298;127.520;2022-08-11T09:08:16;0.15;;;0.15;;
55545;SDS011;44768;50.298;127.520;2022-08-11T09:13:19;0.10;;;0.10;;
55545;SDS011;44768;50.298;127.520;2022-08-11T09:18:22;0.20;;;0.20;;
55545;SDS011;44768;50.298;127.520;2022-08-11T09:23:23;0.10;;;0.10;;
55545;SDS011;44768;50.298;127.520;2022-08-11T09:28:45;0.20;;;0.20;;
55545;SDS011;44768;50.298;127.520;2022-08-11T09:33:50;0.20;;;0.20;;
55545;SDS011;44768;50.298;127.520;2022-08-11T09:38:54;0.10;;;0.10;;
55545;SDS011;44768;50.298;127.520;2022-08-11T09:44:15;0.10;;;0.10;;
55545;SDS011;44768;50.298;127.520;2022-08-11T09:49:43;0.20;;;0.20;;
55545;SDS011;44768;50.298;127.520;2022-08-11T09:54:46;0.10;;;0.10;;
55545;SDS011;44768;50.298;127.520;2022-08-11T09:59:50;0.20;;;0.20;;
55545;SDS011;44768;50.298;127.520;2022-08-11T10:04:56;0.10;;;0.10;;
55545;SDS011;44768;50.298;127.520;2022-08-11T10:10:19;0.10;;;0.10;;
55545;SDS011;44768;50.298;127.520;2022-08-11T10:15:22;0.10;;;0.10;;
55545;SDS011;44768;50.298;127.520;2022-08-11T10:20:36;0.20;;;0.20;;
55545;SDS011;44768;50.298;127.520;2022-08-11T10:25:39;0.10;;;0.10;;
55545;SDS011;44768;50.298;127.520;2022-08-11T10:31:01;0.20;;;0.20;;
55545;SDS011;44768;50.298;127.520;2022-08-11T10:36:23;0.20;;;0.20;;
55545;SDS011;44768;50.298;127.520;2022-08-11T10:41:47;0.20;;;0.20;;
55545;SDS011;44768;50.298;127.520;2022-08-11T10:47:09;0.10;;;0.10;;
55545;SDS011;44768;50.298;127.520;2022-08-11T10:52:31;0.20;;;0.20;;
55545;SDS011;44768;50.298;127.520;2022-08-11T10:57:51;0.10;;;0.10;;
55545;SDS011;44768;50.298;127.520;2022-08-11T11:03:11;0.20;;;0.20;;
55545;SDS011;44768;50.298;127.520;2022-08-11T11:08:14;0.20;;;0.20;;
55545;SDS011;44768;50.298;127.520;2022-08-11T11:13:39;0.17;;;0.17;;
55545;SDS011;44768;50.298;127.520;2022-08-11T11:18:59;0.20;;;0.20;;
55545;SDS011;44768;50.298;127.520;2022-08-11T11:29:53;0.20;;;0.20;;
55545;SDS011;44768;50.298;127.520;2022-08-11T11:40:27;0.20;;;0.20;;
55545;SDS011;44768;50.298;127.520;2022-08-11T11:45:29;0.10;;;0.10;;
55545;SDS011;44768;50.298;127.520;2022-08-11T11:50:35;0.20;;;0.20;;
55545;SDS011;44768;50.298;127.520;2022-08-11T11:55:38;0.20;;;0.20;;
55545;SDS011;44768;50.298;127.520;2022-08-11T12:00:40;0.20;;;0.20;;
55545;SDS011;44768;50.298;127.520;2022-08-11T12:11:06;0.20;;;0.20;;
55545;SDS011;44768;50.298;127.520;2022-08-11T12:16:30;0.20;;;0.20;;
55545;SDS011;44768;50.298;127.520;2022-08-11T12:21:34;0.20;;;0.20;;
55545;SDS011;44768;50.298;127.520;2022-08-11T12:26:37;0.20;;;0.20;;
55545;SDS011;44768;50.298;127.520;2022-08-11T12:31:45;0.20;;;0.20;;
55545;SDS011;44768;50.298;127.520;2022-08-11T12:36:49;0.20;;;0.20;;
55545;SDS011;44768;50.298;127.520;2022-08-11T12:41:57;0.20;;;0.20;;
55545;SDS011;44768;50.298;127.520;2022-08-11T12:47:18;0.20;;;0.20;;
55545;SDS011;44768;50.298;127.520;2022-08-11T12:52:22;0.20;;;0.20;;
55545;SDS011;44768;50.298;127.520;2022-08-11T12:57:30;0.20;;;0.20;;
55545;SDS011;44768;50.298;127.520;2022-08-11T13:02:54;0.20;;;0.20;;
55545;SDS011;44768;50.298;127.520;2022-08-11T13:08:15;0.20;;;0.20;;
55545;SDS011;44768;50.298;127.520;2022-08-11T13:13:18;0.20;;;0.20;;
55545;SDS011;44768;50.298;127.520;2022-08-11T13:18:24;0.20;;;0.20;;
55545;SDS011;44768;50.298;127.520;2022-08-11T13:23:27;0.20;;;0.20;;
55545;SDS011;44768;50.298;127.520;2022-08-11T13:28:30;0.20;;;0.20;;
55545;SDS011;44768;50.298;127.520;2022-08-11T13:33:32;0.20;;;0.20;;
55545;SDS011;44768;50.298;127.520;2022-08-11T13:38:37;0.10;;;0.10;;
55545;SDS011;44768;50.298;127.520;2022-08-11T13:43:42;0.20;;;0.20;;
55545;SDS011;44768;50.298;127.520;2022-08-11T13:48:44;0.20;;;0.20;;
55545;SDS011;44768;50.298;127.520;2022-08-11T13:53:46;0.20;;;0.20;;
55545;SDS011;44768;50.298;127.520;2022-08-11T13:58:48;0.17;;;0.17;;
55545;SDS011;44768;50.298;127.520;2022-08-11T14:03:51;0.20;;;0.20;;
55545;SDS011;44768;50.298;127.520;2022-08-11T14:08:53;0.20;;;0.20;;
55545;SDS011;44768;50.298;127.520;2022-08-11T14:13:56;0.20;;;0.20;;
55545;SDS011;44768;50.298;127.520;2022-08-11T14:19:00;0.20;;;0.20;;
55545;SDS011;44768;50.298;127.520;2022-08-11T14:24:05;0.20;;;0.20;;
55545;SDS011;44768;50.298;127.520;2022-08-11T14:29:11;0.20;;;0.20;;
55545;SDS011;44768;50.298;127.520;2022-08-11T14:34:14;0.20;;;0.20;;
55545;SDS011;44768;50.298;127.520;2022-08-11T14:39:21;0.20;;;0.20;;
55545;SDS011;44768;50.298;127.520;2022-08-11T14:44:35;0.20;;;0.20;;
55545;SDS011;44768;50.298;127.520;2022-08-11T14:49:56;0.20;;;0.20;;
55545;SDS011;44768;50.298;127.520;2022-08-11T14:54:59;0.20;;;0.20;;
55545;SDS011;44768;50.298;127.520;2022-08-11T15:00:20;0.20;;;0.20;;
55545;SDS011;44768;50.298;127.520;2022-08-11T15:05:22;0.20;;;0.20;;
55545;SDS011;44768;50.298;127.520;2022-08-11T15:10:25;0.20;;;0.20;;
55545;SDS011;44768;50.298;127.520;2022-08-11T15:15:28;0.20;;;0.20;;
55545;SDS011;44768;50.298;127.520;2022-08-11T15:20:50;0.20;;;0.20;;
55545;SDS011;44768;50.298;127.520;2022-08-11T15:26:31;0.20;;;0.20;;
55545;SDS011;44768;50.298;127.520;2022-08-11T15:31:57;0.20;;;0.20;;
55545;SDS011;44768;50.298;127.520;2022-08-11T15:37:17;0.20;;;0.20;;
55545;SDS011;44768;50.298;127.520;2022-08-11T15:42:25;0.20;;;0.20;;
55545;SDS011;44768;50.298;127.520;2022-08-11T15:47:49;0.20;;;0.20;;
55545;SDS011;44768;50.298;127.520;2022-08-11T15:52:59;0.20;;;0.20;;
55545;SDS011;44768;50.298;127.520;2022-08-11T15:58:06;0.20;;;0.20;;
55545;SDS011;44768;50.298;127.520;2022-08-11T16:03:28;0.20;;;0.20;;
55545;SDS011;44768;50.298;127.520;2022-08-11T16:08:51;0.20;;;0.20;;
55545;SDS011;44768;50.298;127.520;2022-08-11T16:13:56;0.20;;;0.20;;
55545;SDS011;44768;50.298;127.520;2022-08-11T16:19:18;0.20;;;0.20;;
55545;SDS011;44768;50.298;127.520;2022-08-11T16:24:22;0.20;;;0.20;;
55545;SDS011;44768;50.298;127.520;2022-08-11T16:29:25;0.20;;;0.20;;
55545;SDS011;44768;50.298;127.520;2022-08-11T16:34:31;0.20;;;0.20;;
55545;SDS011;44768;50.298;127.520;2022-08-11T16:39:52;0.20;;;0.20;;
55545;SDS011;44768;50.298;127.520;2022-08-11T16:44:54;0.20;;;0.20;;
55545;SDS011;44768;50.298;127.520;2022-08-11T16:50:31;0.20;;;0.20;;
55545;SDS011;44768;50.298;127.520;2022-08-11T16:55:33;0.20;;;0.20;;
55545;SDS011;44768;50.298;127.520;2022-08-11T17:00:35;0.20;;;0.20;;
55545;SDS011;44768;50.298;127.520;2022-08-11T17:05:39;0.20;;;0.20;;
55545;SDS011;44768;50.298;127.520;2022-08-11T17:11:03;0.20;;;0.20;;
55545;SDS011;44768;50.298;127.520;2022-08-11T17:16:33;0.20;;;0.20;;
55545;SDS011;44768;50.298;127.520;2022-08-11T17:21:48;0.20;;;0.20;;
55545;SDS011;44768;50.298;127.520;2022-08-11T17:27:09;0.22;;;0.22;;
55545;SDS011;44768;50.298;127.520;2022-08-11T17:32:17;0.20;;;0.20;;
55545;SDS011;44768;50.298;127.520;2022-08-11T17:37:40;0.20;;;0.20;;
55545;SDS011;44768;50.298;127.520;2022-08-11T17:42:43;0.20;;;0.20;;
55545;SDS011;44768;50.298;127.520;2022-08-11T17:48:04;0.20;;;0.20;;
55545;SDS011;44768;50.298;127.520;2022-08-11T17:53:28;0.20;;;0.20;;
55545;SDS011;44768;50.298;127.520;2022-08-11T17:58:51;0.20;;;0.20;;
55545;SDS011;44768;50.298;127.520;2022-08-11T18:04:32;0.20;;;0.20;;
55545;SDS011;44768;50.298;127.520;2022-08-11T18:09:34;0.20;;;0.20;;
55545;SDS011;44768;50.298;127.520;2022-08-11T18:14:55;0.20;;;0.20;;
55545;SDS011;44768;50.298;127.520;2022-08-11T18:20:16;0.20;;;0.20;;
55545;SDS011;44768;50.298;127.520;2022-08-11T18:25:43;0.20;;;0.20;;
55545;SDS011;44768;50.298;127.520;2022-08-11T18:31:06;0.28;;;0.28;;
55545;SDS011;44768;50.298;127.520;2022-08-11T18:36:30;0.20;;;0.20;;
55545;SDS011;44768;50.298;127.520;2022-08-11T18:41:53;0.20;;;0.20;;
55545;SDS011;44768;50.298;127.520;2022-08-11T18:47:16;0.20;;;0.20;;
55545;SDS011;44768;50.298;127.520;2022-08-11T18:52:40;0.20;;;0.20;;
55545;SDS011;44768;50.298;127.520;2022-08-11T18:58:03;0.20;;;0.20;;
55545;SDS011;44768;50.298;127.520;2022-08-11T19:03:27;0.20;;;0.20;;
55545;SDS011;44768;50.298;127.520;2022-08-11T19:08:53;0.20;;;0.20;;
55545;SDS011;44768;50.298;127.520;2022-08-11T19:14:17;0.20;;;0.20;;
55545;SDS011;44768;50.298;127.520;2022-08-11T19:25:01;0.20;;;0.20;;
55545;SDS011;44768;50.298;127.520;2022-08-11T19:30:24;0.20;;;0.20;;
55545;SDS011;44768;50.298;127.520;2022-08-11T19:35:46;0.20;;;0.20;;
55545;SDS011;44768;50.298;127.520;2022-08-11T19:41:07;0.20;;;0.20;;
55545;SDS011;44768;50.298;127.520;2022-08-11T19:46:31;0.20;;;0.20;;
55545;SDS011;44768;50.298;127.520;2022-08-11T19:51:54;0.20;;;0.20;;
55545;SDS011;44768;50.298;127.520;2022-08-11T19:57:16;0.20;;;0.20;;
55545;SDS011;44768;50.298;127.520;2022-08-11T20:02:37;0.20;;;0.20;;
55545;SDS011;44768;50.298;127.520;2022-08-11T20:07:58;0.20;;;0.20;;
55545;SDS011;44768;50.298;127.520;2022-08-11T20:13:18;0.20;;;0.20;;
55545;SDS011;44768;50.298;127.520;2022-08-11T20:18:41;0.20;;;0.20;;
55545;SDS011;44768;50.298;127.520;2022-08-11T20:29:25;0.20;;;0.20;;
55545;SDS011;44768;50.298;127.520;2022-08-11T20:34:48;0.22;;;0.22;;
55545;SDS011;44768;50.298;127.520;2022-08-11T20:40:08;0.20;;;0.20;;
55545;SDS011;44768;50.298;127.520;2022-08-11T20:45:29;0.20;;;0.20;;
55545;SDS011;44768;50.298;127.520;2022-08-11T20:50:51;0.30;;;0.30;;
55545;SDS011;44768;50.298;127.520;2022-08-11T20:56:13;0.22;;;0.22;;
55545;SDS011;44768;50.298;127.520;2022-08-11T21:01:35;0.20;;;0.20;;
55545;SDS011;44768;50.298;127.520;2022-08-11T21:06:57;0.20;;;0.20;;
55545;SDS011;44768;50.298;127.520;2022-08-11T21:12:20;0.20;;;0.20;;
55545;SDS011;44768;50.298;127.520;2022-08-11T21:17:42;0.20;;;0.20;;
55545;SDS011;44768;50.298;127.520;2022-08-11T21:23:04;0.20;;;0.20;;
55545;SDS011;44768;50.298;127.520;2022-08-11T21:28:28;0.20;;;0.20;;
55545;SDS011;44768;50.298;127.520;2022-08-11T21:33:50;0.20;;;0.20;;
55545;SDS011;44768;50.298;127.520;2022-08-11T21:39:15;0.20;;;0.20;;
55545;SDS011;44768;50.298;127.520;2022-08-11T21:44:38;0.20;;;0.20;;
55545;SDS011;44768;50.298;127.520;2022-08-11T21:50:00;0.20;;;0.20;;
55545;SDS011;44768;50.298;127.520;2022-08-11T21:55:21;0.20;;;0.20;;
55545;SDS011;44768;50.298;127.520;2022-08-11T22:00:41;0.20;;;0.20;;
55545;SDS011;44768;50.298;127.520;2022-08-11T22:06:02;0.20;;;0.20;;
55545;SDS011;44768;50.298;127.520;2022-08-11T22:11:22;0.20;;;0.20;;
55545;SDS011;44768;50.298;127.520;2022-08-11T22:16:43;0.20;;;0.20;;
55545;SDS011;44768;50.298;127.520;2022-08-11T22:22:04;0.15;;;0.15;;
55545;SDS011;44768;50.298;127.520;2022-08-11T22:27:24;0.20;;;0.20;;
55545;SDS011;44768;50.298;127.520;2022-08-11T22:32:44;0.10;;;0.10;;
55545;SDS011;44768;50.298;127.520;2022-08-11T22:38:05;0.20;;;0.20;;
55545;SDS011;44768;50.298;127.520;2022-08-11T22:43:26;0.10;;;0.10;;
55545;SDS011;44768;50.298;127.520;2022-08-11T22:48:46;0.10;;;0.10;;
55545;SDS011;44768;50.298;127.520;2022-08-11T22:54:06;0.10;;;0.10;;
55545;SDS011;44768;50.298;127.520;2022-08-11T22:59:28;0.10;;;0.10;;
55545;SDS011;44768;50.298;127.520;2022-08-11T23:04:48;0.10;;;0.10;;
55545;SDS011;44768;50.298;127.520;2022-08-11T23:10:09;0.10;;;0.10;;
55545;SDS011;44768;50.298;127.520;2022-08-11T23:15:30;0.10;;;0.10;;
55545;SDS011;44768;50.298;127.520;2022-08-11T23:20:50;0.10;;;0.10;;
55545;SDS011;44768;50.298;127.520;2022-08-11T23:26:11;0.10;;;0.10;;
55545;SDS011;44768;50.298;127.520;2022-08-11T23:31:33;0.10;;;0.10;;
55545;SDS011;44768;50.298;127.520;2022-08-11T23:36:54;0.10;;;0.10;;
55545;SDS011;44768;50.298;127.520;2022-08-11T23:42:14;0.10;;;0.10;;
55545;SDS011;44768;50.298;127.520;2022-08-11T23:47:34;0.00;;;0.00;;
55545;SDS011;44768;50.298;127.520;2022-08-11T23:52:57;0.10;;;0.10;;
55545;SDS011;44768;50.298;127.520;2022-08-11T23:58:17;0.10;;;0.10;;
